createdAt,value
2019-02-08T04:55:10.079Z,0.60
2019-02-08T04:57:40.674Z,0.57
2019-02-08T05:00:22.950Z,0.59
2019-02-08T05:02:53.413Z,0.70
2019-02-08T05:05:23.814Z,0.85
2019-02-08T05:07:54.262Z,0.98
2019-02-08T05:10:31.498Z,1.12
2019-02-08T05:13:02.901Z,1.24
2019-02-08T05:15:33.297Z,1.35
2019-02-08T05:18:03.870Z,1.45
2019-02-08T05:20:34.291Z,1.53
2019-02-08T05:23:04.721Z,1.63
2019-02-08T05:25:35.124Z,1.69
2019-02-08T05:28:05.575Z,1.75
2019-02-08T05:30:36.720Z,1.79
2019-02-08T05:33:07.112Z,1.83
2019-02-08T05:35:37.584Z,1.84
2019-02-08T05:38:08.005Z,1.88
2019-02-08T05:40:38.461Z,1.91
2019-02-08T05:43:08.925Z,1.93
2019-02-08T05:45:39.598Z,2.01
2019-02-08T05:48:10.127Z,2.02
2019-02-08T05:50:40.659Z,2.05
2019-02-08T05:53:11.093Z,2.13
2019-02-08T05:55:41.486Z,2.15
2019-02-08T05:58:11.952Z,2.17
2019-02-08T06:00:46.422Z,2.18
2019-02-08T06:03:16.901Z,2.16
2019-02-08T06:05:47.430Z,2.09
2019-02-08T06:08:17.912Z,2.11
2019-02-08T06:10:48.392Z,2.10
2019-02-08T06:13:18.813Z,2.08
2019-02-08T06:15:49.344Z,2.07
2019-02-08T06:18:19.731Z,2.05
2019-02-08T06:20:50.208Z,2.01
2019-02-08T06:23:20.697Z,2.00
2019-02-08T06:25:51.107Z,1.99
2019-02-08T06:28:21.601Z,2.03
2019-02-08T06:30:52.022Z,2.05
2019-02-08T06:33:22.554Z,2.07
2019-02-08T06:35:52.954Z,2.13
2019-02-08T06:38:23.413Z,2.19
2019-02-08T06:40:53.837Z,2.30
2019-02-08T06:43:24.260Z,2.35
2019-02-08T06:45:54.648Z,2.36
2019-02-08T06:48:25.081Z,2.37
2019-02-08T06:50:55.541Z,2.40
2019-02-08T06:53:25.940Z,2.45
2019-02-08T06:55:56.403Z,2.43
2019-02-08T06:58:34.813Z,2.48
2019-02-08T07:01:22.359Z,2.46
2019-02-08T07:03:54.417Z,2.51
2019-02-08T07:06:32.319Z,2.56
2019-02-08T07:09:13.489Z,2.54
2019-02-08T07:11:54.912Z,2.61
2019-02-08T07:14:26.952Z,2.59
2019-02-08T07:17:02.095Z,2.65
2019-02-08T07:19:37.424Z,2.69
2019-02-08T07:22:18.516Z,2.78
2019-02-08T07:24:50.675Z,2.81
2019-02-08T07:27:29.489Z,2.90
2019-02-08T07:30:04.848Z,2.92
2019-02-08T07:32:46.020Z,3.02
2019-02-08T07:35:18.200Z,3.03
2019-02-08T07:38:00.251Z,3.13
2019-02-08T07:40:38.403Z,3.25
2019-02-08T07:43:19.157Z,3.28
2019-02-08T07:45:54.110Z,3.39
2019-02-08T07:48:29.636Z,3.47
2019-02-08T07:51:14.001Z,3.50
2019-02-08T07:53:51.927Z,3.61
2019-02-08T07:56:23.973Z,3.68
2019-02-08T07:59:02.059Z,3.80
2019-02-08T08:01:49.154Z,3.87
2019-02-08T08:04:21.268Z,3.93
2019-02-08T08:06:59.077Z,3.92
2019-02-08T08:09:46.055Z,4.02
2019-02-08T08:12:18.674Z,4.06
2019-02-08T08:14:56.656Z,4.14
2019-02-08T08:17:28.743Z,4.23
2019-02-08T08:20:03.913Z,4.25
2019-02-08T08:22:36.033Z,4.41
2019-02-08T08:25:33.697Z,4.39
2019-02-08T08:28:12.132Z,4.45
2019-02-08T08:30:44.230Z,4.60
2019-02-08T08:33:24.087Z,4.65
2019-02-08T08:36:06.762Z,4.74
2019-02-08T08:38:49.174Z,4.81
2019-02-08T08:41:34.781Z,4.90
2019-02-08T08:44:17.477Z,5.01
2019-02-08T08:47:09.195Z,5.03
2019-02-08T08:50:02.525Z,5.08
2019-02-08T08:52:57.059Z,5.19
2019-02-08T08:55:42.057Z,5.23
2019-02-08T08:58:12.097Z,5.37
2019-02-08T09:00:54.247Z,5.47
2019-02-08T09:03:47.553Z,5.39
2019-02-08T09:06:36.113Z,5.58
2019-02-08T09:09:18.446Z,5.70
2019-02-08T09:12:08.531Z,5.64
2019-02-08T09:14:54.664Z,5.65
2019-02-08T09:17:34.010Z,5.84
2019-02-08T09:20:27.188Z,5.80
2019-02-08T09:23:10.048Z,5.69
2019-02-08T09:25:58.534Z,5.82
2019-02-08T09:28:44.329Z,5.85
2019-02-08T09:31:23.697Z,5.95
2019-02-08T09:34:21.333Z,5.97
2019-02-08T09:37:01.277Z,6.16
2019-02-08T09:39:52.945Z,6.17
2019-02-08T09:42:48.833Z,6.08
2019-02-08T09:45:34.418Z,6.20
2019-02-08T09:48:11.080Z,6.13
2019-02-08T09:50:50.715Z,6.34
2019-02-08T09:53:30.071Z,6.34
2019-02-08T09:56:26.307Z,6.47
2019-02-08T09:59:33.186Z,6.55
2019-02-08T10:02:15.798Z,6.41
2019-02-08T10:05:13.475Z,6.63
2019-02-08T10:08:14.522Z,6.67
2019-02-08T10:11:12.193Z,6.90
2019-02-08T10:14:02.466Z,6.92
2019-02-08T10:17:01.473Z,6.67
2019-02-08T10:19:54.230Z,6.80
2019-02-08T10:23:01.319Z,7.01
2019-02-08T10:25:47.307Z,6.89
2019-02-08T10:28:40.585Z,7.10
2019-02-08T10:31:47.758Z,7.21
2019-02-08T10:34:33.451Z,7.31
2019-02-08T10:37:19.136Z,7.45
2019-02-08T10:39:58.432Z,7.41
2019-02-08T10:42:49.692Z,7.58
2019-02-08T10:45:32.317Z,7.65
2019-02-08T10:48:11.692Z,7.76
2019-02-08T10:51:00.387Z,7.83
2019-02-08T10:53:55.037Z,7.92
2019-02-08T10:56:43.750Z,7.93
2019-02-08T10:59:23.288Z,8.00
2019-02-08T11:02:12.052Z,8.04
2019-02-08T11:04:45.970Z,8.07
2019-02-08T11:07:52.826Z,8.19
2019-02-08T11:10:29.516Z,8.10
2019-02-08T11:13:23.706Z,8.21
2019-02-08T11:16:30.583Z,8.25
2019-02-08T11:19:17.463Z,8.26
2019-02-08T11:21:49.219Z,8.24
2019-02-08T11:24:20.981Z,8.31
2019-02-08T11:26:51.376Z,8.36
2019-02-08T11:29:21.775Z,8.38
2019-02-08T11:31:52.196Z,8.34
2019-02-08T11:34:22.663Z,8.30
2019-02-08T11:36:54.598Z,8.32
2019-02-08T11:39:25.016Z,8.31
2019-02-08T11:41:55.488Z,8.42
2019-02-08T11:44:25.891Z,8.38
2019-02-08T11:46:56.291Z,8.43
2019-02-08T11:49:26.690Z,8.49
2019-02-08T11:51:57.166Z,8.45
2019-02-08T11:54:27.588Z,8.72
2019-02-08T11:56:58.021Z,8.73
2019-02-08T11:59:28.455Z,8.79
2019-02-08T12:01:58.871Z,8.70
2019-02-08T12:04:29.521Z,8.73
2019-02-08T12:07:02.546Z,8.68
2019-02-08T12:09:42.295Z,8.78
2019-02-08T12:12:12.877Z,8.80
2019-02-08T12:14:43.415Z,8.76
2019-02-08T12:17:13.840Z,8.80
2019-02-08T12:19:44.247Z,8.89
2019-02-08T12:22:14.634Z,8.89
2019-02-08T12:24:45.151Z,8.97
2019-02-08T12:27:15.654Z,8.84
2019-02-08T12:29:46.189Z,8.85
2019-02-08T12:32:16.720Z,8.83
2019-02-08T12:34:47.138Z,8.83
2019-02-08T12:37:17.604Z,8.86
2019-02-08T12:39:48.104Z,8.96
2019-02-08T12:42:18.535Z,8.94
2019-02-08T12:44:49.484Z,8.93
2019-02-08T12:47:20.100Z,9.02
2019-02-08T12:49:50.560Z,9.16
2019-02-08T12:52:21.067Z,9.27
2019-02-08T12:54:51.449Z,9.30
2019-02-08T12:57:22.332Z,9.23
2019-02-08T12:59:52.945Z,9.25
2019-02-08T13:02:23.394Z,9.33
2019-02-08T13:04:55.550Z,9.31
2019-02-08T13:07:26.693Z,9.27
2019-02-08T13:09:59.799Z,9.05
2019-02-08T13:12:30.444Z,9.10
2019-02-08T13:15:03.540Z,9.18
2019-02-08T13:17:34.761Z,9.13
2019-02-08T13:20:12.263Z,9.14
2019-02-08T13:22:43.145Z,9.21
2019-02-08T13:25:14.518Z,9.14
2019-02-08T13:27:45.084Z,9.26
2019-02-08T13:30:29.659Z,9.27
2019-02-08T13:33:03.050Z,9.22
2019-02-08T13:35:33.763Z,9.25
2019-02-08T13:38:04.718Z,9.25
2019-02-08T13:40:35.149Z,9.25
2019-02-08T13:43:06.603Z,9.29
2019-02-08T13:45:37.052Z,9.30
2019-02-08T13:48:07.576Z,9.35
2019-02-08T13:50:41.911Z,9.37
2019-02-08T13:53:14.108Z,9.37
2019-02-08T13:55:44.511Z,9.32
2019-02-08T13:58:15.013Z,9.40
2019-02-08T14:00:45.540Z,9.30
2019-02-08T14:03:15.959Z,9.26
2019-02-08T14:05:46.488Z,9.20
2019-02-08T14:08:16.923Z,9.23
2019-02-08T14:10:47.367Z,9.21
2019-02-08T14:13:17.889Z,9.19
2019-02-08T14:15:48.309Z,9.10
2019-02-08T14:18:18.694Z,9.07
2019-02-08T14:20:49.168Z,9.08
2019-02-08T14:23:19.703Z,9.05
2019-02-08T14:25:50.240Z,9.03
2019-02-08T14:28:20.661Z,8.98
2019-02-08T14:30:51.084Z,8.96
2019-02-08T14:33:21.524Z,8.97
2019-02-08T14:35:52.048Z,9.01
2019-02-08T14:38:22.471Z,9.00
2019-02-08T14:40:52.899Z,8.94
2019-02-08T14:43:23.304Z,8.93
2019-02-08T14:45:54.095Z,8.91
2019-02-08T14:48:27.994Z,8.90
2019-02-08T14:50:59.531Z,8.90
2019-02-08T14:53:29.954Z,8.87
2019-02-08T14:56:00.390Z,8.79
2019-02-08T14:58:30.917Z,8.78
2019-02-08T15:01:01.349Z,8.75
2019-02-08T15:03:31.881Z,8.71
2019-02-08T15:06:03.340Z,8.70
2019-02-08T15:08:35.522Z,8.60
2019-02-08T15:11:06.359Z,8.52
2019-02-08T15:13:36.853Z,8.50
2019-02-08T15:16:07.494Z,8.49
2019-02-08T15:18:37.985Z,8.42
2019-02-08T15:21:08.558Z,8.36
2019-02-08T15:23:38.987Z,8.34
2019-02-08T15:26:09.519Z,8.27
2019-02-08T15:28:39.988Z,8.23
2019-02-08T15:31:10.482Z,8.16
2019-02-08T15:33:41.115Z,8.15
2019-02-08T15:36:11.640Z,8.08
2019-02-08T15:38:42.176Z,7.98
2019-02-08T15:41:12.607Z,7.87
2019-02-08T15:43:43.025Z,7.79
2019-02-08T15:46:13.669Z,7.69
2019-02-08T15:48:44.390Z,7.62
2019-02-08T15:51:14.927Z,7.53
2019-02-08T15:53:45.358Z,7.47
2019-02-08T15:56:15.788Z,7.42
2019-02-08T15:58:46.192Z,7.33
2019-02-08T16:01:16.645Z,7.20
2019-02-08T16:03:47.046Z,7.13
2019-02-08T16:06:17.501Z,7.05
2019-02-08T16:08:47.970Z,6.98
2019-02-08T16:11:18.454Z,6.87
2019-02-08T16:13:48.869Z,6.83
2019-02-08T16:16:19.312Z,6.78
2019-02-08T16:18:49.843Z,6.69
2019-02-08T16:21:20.372Z,6.68
2019-02-08T16:23:51.059Z,6.65
2019-02-08T16:26:22.666Z,6.59
2019-02-08T16:28:53.197Z,6.55
2019-02-08T16:31:23.630Z,6.51
2019-02-08T16:33:55.148Z,6.41
2019-02-08T16:36:25.581Z,6.40
2019-02-08T16:38:56.049Z,6.36
2019-02-08T16:41:26.948Z,6.30
2019-02-08T16:43:57.374Z,6.26
2019-02-08T16:46:27.899Z,6.24
2019-02-08T16:48:58.333Z,6.20
2019-02-08T16:51:28.960Z,6.12
2019-02-08T16:54:00.961Z,6.11
2019-02-08T16:56:31.379Z,6.06
2019-02-08T16:59:02.887Z,6.01
2019-02-08T17:01:33.850Z,5.97
2019-02-08T17:04:04.260Z,5.95
2019-02-08T17:06:34.908Z,5.88
2019-02-08T17:09:08.580Z,5.83
2019-02-08T17:11:39.008Z,5.79
2019-02-08T17:14:09.424Z,5.76
2019-02-08T17:16:39.915Z,5.71
2019-02-08T17:19:10.445Z,5.66
2019-02-08T17:21:40.918Z,5.58
2019-02-08T17:24:12.420Z,5.52
2019-02-08T17:26:46.750Z,5.46
2019-02-08T17:29:17.681Z,5.40
2019-02-08T17:31:48.116Z,5.39
2019-02-08T17:34:18.670Z,5.38
2019-02-08T17:36:49.081Z,5.32
2019-02-08T17:39:19.601Z,5.27
2019-02-08T17:41:50.019Z,5.22
2019-02-08T17:44:20.452Z,5.18
2019-02-08T17:46:50.885Z,5.15
2019-02-08T17:49:21.415Z,5.11
2019-02-08T17:51:52.966Z,5.07
2019-02-08T17:54:25.674Z,4.99
2019-02-08T17:56:55.470Z,4.89
2019-02-08T17:59:25.886Z,4.86
2019-02-08T18:01:56.303Z,4.81
2019-02-08T18:04:26.847Z,4.77
2019-02-08T18:06:57.425Z,4.75
2019-02-08T18:09:27.844Z,4.70
2019-02-08T18:11:58.440Z,4.65
2019-02-08T18:14:28.971Z,4.65
2019-02-08T18:16:59.402Z,4.62
2019-02-08T18:19:31.626Z,4.58
2019-02-08T18:22:02.036Z,4.52
2019-02-08T18:24:32.534Z,4.50
2019-02-08T18:27:03.160Z,4.48
2019-02-08T18:29:33.692Z,4.49
2019-02-08T18:32:04.096Z,4.45
2019-02-08T18:34:34.638Z,4.44
2019-02-08T18:37:05.172Z,4.43
2019-02-08T18:39:35.576Z,4.40
2019-02-08T18:42:05.993Z,4.33
2019-02-08T18:44:36.416Z,4.29
2019-02-08T18:47:06.846Z,4.25
2019-02-08T18:49:37.334Z,4.23
2019-02-08T18:52:07.774Z,4.22
2019-02-08T18:54:38.202Z,4.19
2019-02-08T18:57:08.701Z,4.15
2019-02-08T18:59:39.140Z,4.12
2019-02-08T19:02:09.547Z,4.09
2019-02-08T19:04:39.987Z,4.04
2019-02-08T19:07:10.421Z,4.02
2019-02-08T19:09:40.949Z,4.00
2019-02-08T19:12:11.481Z,3.98
2019-02-08T19:14:41.900Z,3.97
2019-02-08T19:17:12.371Z,3.97
2019-02-08T19:19:42.964Z,3.93
2019-02-08T19:22:13.394Z,3.90
2019-02-08T19:24:43.827Z,3.82
2019-02-08T19:27:14.457Z,3.86
2019-02-08T19:29:44.888Z,3.84
2019-02-08T19:32:15.387Z,3.83
2019-02-08T19:34:45.842Z,3.82
2019-02-08T19:37:16.334Z,3.81
2019-02-08T19:39:46.740Z,3.81
2019-02-08T19:42:17.334Z,3.78
2019-02-08T19:44:47.757Z,3.77
2019-02-08T19:47:18.170Z,3.81
2019-02-08T19:49:48.620Z,3.82
2019-02-08T19:52:19.152Z,3.81
2019-02-08T19:54:49.563Z,3.82
2019-02-08T19:57:21.051Z,3.84
2019-02-08T19:59:51.567Z,3.89
2019-02-08T20:02:23.633Z,3.89
2019-02-08T20:04:54.120Z,3.91
2019-02-08T20:07:24.695Z,3.89
2019-02-08T20:09:55.104Z,3.88
2019-02-08T20:12:25.508Z,3.87
2019-02-08T20:14:55.894Z,3.88
2019-02-08T20:17:26.290Z,3.86
2019-02-08T20:19:56.698Z,3.85
2019-02-08T20:22:27.103Z,3.80
2019-02-08T20:24:57.715Z,3.82
2019-02-08T20:27:28.217Z,3.80
